sensor_id;sensor_type;location;lat;lon;timestamp;P1;durP1;ratioP1;P2;durP2;ratioP2
6463;SDS011;3265;42.694;23.282;2024-01-16T00:53:22;19.23;;;11.17;;
6463;SDS011;3265;42.694;23.282;2024-01-16T01:02:25;18.67;;;11.10;;
6463;SDS011;3265;42.694;23.282;2024-01-16T01:56:26;17.03;;;10.27;;
6463;SDS011;3265;42.694;23.282;2024-01-16T03:24:20;9.97;;;5.07;;
6463;SDS011;3265;42.694;23.282;2024-01-16T04:11:41;4.30;;;3.67;;
6463;SDS011;3265;42.694;23.282;2024-01-16T04:14:21;4.67;;;3.80;;
6463;SDS011;3265;42.694;23.282;2024-01-16T04:51:50;6.43;;;3.87;;
6463;SDS011;3265;42.694;23.282;2024-01-16T04:54:31;4.90;;;3.67;;
6463;SDS011;3265;42.694;23.282;2024-01-16T04:57:00;4.00;;;3.47;;
6463;SDS011;3265;42.694;23.282;2024-01-16T04:59:27;4.40;;;3.43;;
6463;SDS011;3265;42.694;23.282;2024-01-16T05:01:55;4.33;;;3.40;;
6463;SDS011;3265;42.694;23.282;2024-01-16T05:04:23;3.87;;;3.47;;
6463;SDS011;3265;42.694;23.282;2024-01-16T05:06:50;5.17;;;3.30;;
6463;SDS011;3265;42.694;23.282;2024-01-16T05:09:18;5.80;;;3.83;;
6463;SDS011;3265;42.694;23.282;2024-01-16T05:11:48;4.63;;;2.80;;
6463;SDS011;3265;42.694;23.282;2024-01-16T05:14:17;4.67;;;3.27;;
6463;SDS011;3265;42.694;23.282;2024-01-16T05:16:55;4.27;;;3.40;;
6463;SDS011;3265;42.694;23.282;2024-01-16T05:19:41;3.50;;;3.00;;
6463;SDS011;3265;42.694;23.282;2024-01-16T05:22:27;4.33;;;3.40;;
6463;SDS011;3265;42.694;23.282;2024-01-16T05:24:54;3.47;;;3.00;;
6463;SDS011;3265;42.694;23.282;2024-01-16T05:27:21;3.13;;;2.80;;
6463;SDS011;3265;42.694;23.282;2024-01-16T05:30:03;3.57;;;2.90;;
6463;SDS011;3265;42.694;23.282;2024-01-16T05:34:55;3.72;;;3.00;;
6463;SDS011;3265;42.694;23.282;2024-01-16T05:37:29;3.33;;;2.90;;
6463;SDS011;3265;42.694;23.282;2024-01-16T05:39:56;3.47;;;2.90;;
6463;SDS011;3265;42.694;23.282;2024-01-16T05:42:46;3.90;;;3.00;;
6463;SDS011;3265;42.694;23.282;2024-01-16T05:45:17;4.10;;;3.07;;
6463;SDS011;3265;42.694;23.282;2024-01-16T05:47:58;2.70;;;2.40;;
6463;SDS011;3265;42.694;23.282;2024-01-16T05:50:46;3.87;;;2.70;;
6463;SDS011;3265;42.694;23.282;2024-01-16T05:53:14;3.57;;;3.00;;
6463;SDS011;3265;42.694;23.282;2024-01-16T05:55:54;3.97;;;3.30;;
6463;SDS011;3265;42.694;23.282;2024-01-16T05:58:57;3.77;;;3.13;;
6463;SDS011;3265;42.694;23.282;2024-01-16T06:01:32;4.93;;;3.20;;
6463;SDS011;3265;42.694;23.282;2024-01-16T06:04:26;5.40;;;3.57;;
6463;SDS011;3265;42.694;23.282;2024-01-16T06:08:09;5.23;;;3.80;;
6463;SDS011;3265;42.694;23.282;2024-01-16T07:43:25;6.00;;;3.90;;
6463;SDS011;3265;42.694;23.282;2024-01-16T07:49:21;3.90;;;3.03;;
6463;SDS011;3265;42.694;23.282;2024-01-16T08:23:29;7.00;;;4.80;;
6463;SDS011;3265;42.694;23.282;2024-01-16T08:28:49;7.47;;;4.60;;
6463;SDS011;3265;42.694;23.282;2024-01-16T08:35:14;11.43;;;5.60;;
6463;SDS011;3265;42.694;23.282;2024-01-16T08:53:20;5.07;;;3.43;;
6463;SDS011;3265;42.694;23.282;2024-01-16T08:55:48;7.67;;;4.60;;
6463;SDS011;3265;42.694;23.282;2024-01-16T08:58:15;6.20;;;4.17;;
6463;SDS011;3265;42.694;23.282;2024-01-16T09:00:43;4.43;;;3.33;;
6463;SDS011;3265;42.694;23.282;2024-01-16T09:03:11;4.13;;;3.33;;
6463;SDS011;3265;42.694;23.282;2024-01-16T09:05:41;4.00;;;3.27;;
6463;SDS011;3265;42.694;23.282;2024-01-16T09:11:19;3.90;;;3.30;;
6463;SDS011;3265;42.694;23.282;2024-01-16T09:13:47;11.10;;;4.77;;
6463;SDS011;3265;42.694;23.282;2024-01-16T09:16:14;8.10;;;4.47;;
6463;SDS011;3265;42.694;23.282;2024-01-16T09:18:41;4.23;;;3.30;;
6463;SDS011;3265;42.694;23.282;2024-01-16T09:21:09;7.20;;;4.80;;
6463;SDS011;3265;42.694;23.282;2024-01-16T09:23:37;5.43;;;4.30;;
6463;SDS011;3265;42.694;23.282;2024-01-16T09:26:05;6.10;;;4.40;;
6463;SDS011;3265;42.694;23.282;2024-01-16T09:28:32;6.90;;;3.80;;
6463;SDS011;3265;42.694;23.282;2024-01-16T09:31:00;8.67;;;4.73;;
6463;SDS011;3265;42.694;23.282;2024-01-16T09:33:27;3.90;;;2.90;;
6463;SDS011;3265;42.694;23.282;2024-01-16T09:35:58;4.30;;;2.67;;
6463;SDS011;3265;42.694;23.282;2024-01-16T09:38:25;3.57;;;2.80;;
6463;SDS011;3265;42.694;23.282;2024-01-16T09:40:52;3.17;;;2.80;;
6463;SDS011;3265;42.694;23.282;2024-01-16T09:43:25;3.93;;;3.30;;
6463;SDS011;3265;42.694;23.282;2024-01-16T09:45:56;6.90;;;3.50;;
6463;SDS011;3265;42.694;23.282;2024-01-16T09:48:27;4.53;;;3.20;;
6463;SDS011;3265;42.694;23.282;2024-01-16T09:50:57;5.30;;;4.07;;
6463;SDS011;3265;42.694;23.282;2024-01-16T09:53:26;8.10;;;4.70;;
6463;SDS011;3265;42.694;23.282;2024-01-16T09:55:54;8.00;;;4.27;;
6463;SDS011;3265;42.694;23.282;2024-01-16T09:58:26;7.77;;;4.67;;
6463;SDS011;3265;42.694;23.282;2024-01-16T10:00:57;6.77;;;4.13;;
6463;SDS011;3265;42.694;23.282;2024-01-16T10:03:25;6.27;;;3.80;;
6463;SDS011;3265;42.694;23.282;2024-01-16T10:05:56;3.83;;;2.83;;
6463;SDS011;3265;42.694;23.282;2024-01-16T10:08:27;5.00;;;3.40;;
6463;SDS011;3265;42.694;23.282;2024-01-16T10:10:57;6.03;;;4.10;;
6463;SDS011;3265;42.694;23.282;2024-01-16T10:13:27;7.43;;;4.67;;
6463;SDS011;3265;42.694;23.282;2024-01-16T10:15:55;7.10;;;4.53;;
6463;SDS011;3265;42.694;23.282;2024-01-16T10:18:23;8.27;;;3.80;;
6463;SDS011;3265;42.694;23.282;2024-01-16T10:20:55;4.40;;;2.73;;
6463;SDS011;3265;42.694;23.282;2024-01-16T10:23:25;3.57;;;2.73;;
6463;SDS011;3265;42.694;23.282;2024-01-16T10:42:30;5.80;;;4.00;;
6463;SDS011;3265;42.694;23.282;2024-01-16T11:15:53;4.70;;;3.37;;
6463;SDS011;3265;42.694;23.282;2024-01-16T11:44:43;3.87;;;2.80;;
6463;SDS011;3265;42.694;23.282;2024-01-16T12:04:25;6.03;;;2.93;;
6463;SDS011;3265;42.694;23.282;2024-01-16T12:22:57;8.03;;;3.67;;
6463;SDS011;3265;42.694;23.282;2024-01-16T12:25:26;5.63;;;3.50;;
6463;SDS011;3265;42.694;23.282;2024-01-16T12:27:56;8.10;;;3.80;;
6463;SDS011;3265;42.694;23.282;2024-01-16T12:30:29;5.80;;;3.50;;
6463;SDS011;3265;42.694;23.282;2024-01-16T12:33:05;5.50;;;3.10;;
6463;SDS011;3265;42.694;23.282;2024-01-16T12:35:36;4.30;;;3.00;;
6463;SDS011;3265;42.694;23.282;2024-01-16T12:38:04;6.50;;;3.37;;
6463;SDS011;3265;42.694;23.282;2024-01-16T12:40:34;6.47;;;2.90;;
6463;SDS011;3265;42.694;23.282;2024-01-16T12:43:05;7.27;;;4.47;;
6463;SDS011;3265;42.694;23.282;2024-01-16T12:45:34;9.93;;;6.67;;
6463;SDS011;3265;42.694;23.282;2024-01-16T12:48:01;8.73;;;6.07;;
6463;SDS011;3265;42.694;23.282;2024-01-16T12:50:33;12.47;;;6.97;;
6463;SDS011;3265;42.694;23.282;2024-01-16T12:53:04;10.80;;;5.60;;
6463;SDS011;3265;42.694;23.282;2024-01-16T12:55:33;7.53;;;4.87;;
6463;SDS011;3265;42.694;23.282;2024-01-16T12:58:14;7.27;;;4.27;;
6463;SDS011;3265;42.694;23.282;2024-01-16T13:00:44;9.57;;;4.93;;
6463;SDS011;3265;42.694;23.282;2024-01-16T13:03:19;12.03;;;6.70;;
6463;SDS011;3265;42.694;23.282;2024-01-16T13:05:59;12.17;;;6.20;;
6463;SDS011;3265;42.694;23.282;2024-01-16T13:08:34;11.90;;;6.30;;
6463;SDS011;3265;42.694;23.282;2024-01-16T13:11:03;8.70;;;5.13;;
6463;SDS011;3265;42.694;23.282;2024-01-16T13:13:35;13.53;;;5.80;;
6463;SDS011;3265;42.694;23.282;2024-01-16T13:16:05;7.27;;;4.80;;
6463;SDS011;3265;42.694;23.282;2024-01-16T13:18:34;7.40;;;4.53;;
6463;SDS011;3265;42.694;23.282;2024-01-16T13:21:04;9.53;;;5.07;;
6463;SDS011;3265;42.694;23.282;2024-01-16T13:23:33;7.63;;;4.97;;
6463;SDS011;3265;42.694;23.282;2024-01-16T13:26:01;7.97;;;5.67;;
6463;SDS011;3265;42.694;23.282;2024-01-16T13:28:29;7.37;;;4.77;;
6463;SDS011;3265;42.694;23.282;2024-01-16T13:31:08;7.40;;;4.10;;
6463;SDS011;3265;42.694;23.282;2024-01-16T13:33:35;6.80;;;3.77;;
6463;SDS011;3265;42.694;23.282;2024-01-16T13:36:02;5.77;;;3.90;;
6463;SDS011;3265;42.694;23.282;2024-01-16T13:41:39;4.53;;;3.53;;
6463;SDS011;3265;42.694;23.282;2024-01-16T13:44:07;7.33;;;5.00;;
6463;SDS011;3265;42.694;23.282;2024-01-16T13:46:35;7.40;;;5.63;;
6463;SDS011;3265;42.694;23.282;2024-01-16T13:49:11;6.57;;;4.27;;
6463;SDS011;3265;42.694;23.282;2024-01-16T13:51:39;7.20;;;4.80;;
6463;SDS011;3265;42.694;23.282;2024-01-16T13:54:06;6.43;;;3.40;;
6463;SDS011;3265;42.694;23.282;2024-01-16T13:56:50;5.53;;;4.17;;
6463;SDS011;3265;42.694;23.282;2024-01-16T13:59:30;8.57;;;5.80;;
6463;SDS011;3265;42.694;23.282;2024-01-16T14:01:57;8.90;;;5.47;;
6463;SDS011;3265;42.694;23.282;2024-01-16T14:04:26;8.37;;;4.80;;
6463;SDS011;3265;42.694;23.282;2024-01-16T14:06:53;6.63;;;4.83;;
6463;SDS011;3265;42.694;23.282;2024-01-16T14:09:20;7.80;;;3.90;;
6463;SDS011;3265;42.694;23.282;2024-01-16T14:11:50;9.60;;;6.20;;
6463;SDS011;3265;42.694;23.282;2024-01-16T14:14:17;8.97;;;5.43;;
6463;SDS011;3265;42.694;23.282;2024-01-16T14:16:44;11.83;;;5.30;;
6463;SDS011;3265;42.694;23.282;2024-01-16T14:19:14;7.90;;;4.90;;
6463;SDS011;3265;42.694;23.282;2024-01-16T14:21:42;8.20;;;5.33;;
6463;SDS011;3265;42.694;23.282;2024-01-16T14:24:12;8.63;;;5.10;;
6463;SDS011;3265;42.694;23.282;2024-01-16T14:26:41;13.10;;;5.77;;
6463;SDS011;3265;42.694;23.282;2024-01-16T14:29:13;11.07;;;6.60;;
6463;SDS011;3265;42.694;23.282;2024-01-16T14:31:41;13.40;;;7.10;;
6463;SDS011;3265;42.694;23.282;2024-01-16T14:34:10;13.97;;;6.53;;
6463;SDS011;3265;42.694;23.282;2024-01-16T14:36:41;8.70;;;5.97;;
6463;SDS011;3265;42.694;23.282;2024-01-16T14:39:12;8.53;;;5.63;;
6463;SDS011;3265;42.694;23.282;2024-01-16T14:41:42;6.23;;;4.37;;
6463;SDS011;3265;42.694;23.282;2024-01-16T14:44:16;7.07;;;4.60;;
6463;SDS011;3265;42.694;23.282;2024-01-16T14:46:44;7.67;;;4.90;;
6463;SDS011;3265;42.694;23.282;2024-01-16T14:49:13;7.20;;;4.50;;
6463;SDS011;3265;42.694;23.282;2024-01-16T14:51:41;7.13;;;5.10;;
6463;SDS011;3265;42.694;23.282;2024-01-16T14:54:08;11.23;;;6.80;;
6463;SDS011;3265;42.694;23.282;2024-01-16T14:56:35;10.93;;;6.73;;
6463;SDS011;3265;42.694;23.282;2024-01-16T14:59:10;12.87;;;8.57;;
6463;SDS011;3265;42.694;23.282;2024-01-16T15:01:38;17.40;;;11.13;;
6463;SDS011;3265;42.694;23.282;2024-01-16T15:04:05;23.03;;;11.90;;
6463;SDS011;3265;42.694;23.282;2024-01-16T15:06:32;19.80;;;12.20;;
6463;SDS011;3265;42.694;23.282;2024-01-16T15:09:00;19.53;;;11.27;;
6463;SDS011;3265;42.694;23.282;2024-01-16T15:11:27;18.33;;;10.93;;
6463;SDS011;3265;42.694;23.282;2024-01-16T15:13:54;21.67;;;11.67;;
6463;SDS011;3265;42.694;23.282;2024-01-16T15:16:25;25.97;;;12.47;;
6463;SDS011;3265;42.694;23.282;2024-01-16T15:19:02;20.70;;;11.50;;
6463;SDS011;3265;42.694;23.282;2024-01-16T15:21:30;25.17;;;12.87;;
6463;SDS011;3265;42.694;23.282;2024-01-16T15:23:57;28.77;;;14.50;;
6463;SDS011;3265;42.694;23.282;2024-01-16T15:26:24;30.80;;;16.33;;
6463;SDS011;3265;42.694;23.282;2024-01-16T15:28:51;32.63;;;16.73;;
6463;SDS011;3265;42.694;23.282;2024-01-16T15:31:18;30.97;;;18.23;;
6463;SDS011;3265;42.694;23.282;2024-01-16T15:33:46;30.53;;;18.70;;
6463;SDS011;3265;42.694;23.282;2024-01-16T15:36:14;31.83;;;17.73;;
6463;SDS011;3265;42.694;23.282;2024-01-16T15:38:41;31.33;;;17.83;;
6463;SDS011;3265;42.694;23.282;2024-01-16T15:41:08;28.20;;;16.20;;
6463;SDS011;3265;42.694;23.282;2024-01-16T15:43:35;27.37;;;13.27;;
6463;SDS011;3265;42.694;23.282;2024-01-16T15:46:02;20.40;;;11.90;;
6463;SDS011;3265;42.694;23.282;2024-01-16T15:48:29;18.77;;;11.17;;
6463;SDS011;3265;42.694;23.282;2024-01-16T15:50:58;24.10;;;13.60;;
6463;SDS011;3265;42.694;23.282;2024-01-16T15:53:27;21.73;;;12.30;;
6463;SDS011;3265;42.694;23.282;2024-01-16T15:55:54;24.00;;;13.47;;
6463;SDS011;3265;42.694;23.282;2024-01-16T15:58:21;23.80;;;13.37;;
6463;SDS011;3265;42.694;23.282;2024-01-16T16:00:48;21.23;;;11.50;;
6463;SDS011;3265;42.694;23.282;2024-01-16T16:03:15;18.93;;;11.00;;
6463;SDS011;3265;42.694;23.282;2024-01-16T16:05:41;19.27;;;9.70;;
6463;SDS011;3265;42.694;23.282;2024-01-16T16:08:08;15.37;;;8.97;;
6463;SDS011;3265;42.694;23.282;2024-01-16T16:10:37;17.07;;;9.27;;
6463;SDS011;3265;42.694;23.282;2024-01-16T16:13:06;17.93;;;9.70;;
6463;SDS011;3265;42.694;23.282;2024-01-16T16:15:34;14.03;;;8.50;;
6463;SDS011;3265;42.694;23.282;2024-01-16T16:18:01;15.60;;;9.30;;
6463;SDS011;3265;42.694;23.282;2024-01-16T16:20:28;17.80;;;10.00;;
6463;SDS011;3265;42.694;23.282;2024-01-16T16:22:55;18.83;;;10.03;;
6463;SDS011;3265;42.694;23.282;2024-01-16T16:25:22;19.13;;;11.00;;
6463;SDS011;3265;42.694;23.282;2024-01-16T16:27:50;23.60;;;13.27;;
6463;SDS011;3265;42.694;23.282;2024-01-16T16:30:20;34.50;;;19.30;;
6463;SDS011;3265;42.694;23.282;2024-01-16T16:32:48;47.10;;;24.43;;
6463;SDS011;3265;42.694;23.282;2024-01-16T16:35:15;46.70;;;25.87;;
6463;SDS011;3265;42.694;23.282;2024-01-16T16:37:42;65.53;;;30.77;;
6463;SDS011;3265;42.694;23.282;2024-01-16T16:40:09;84.13;;;40.83;;
6463;SDS011;3265;42.694;23.282;2024-01-16T16:42:37;92.37;;;44.43;;
6463;SDS011;3265;42.694;23.282;2024-01-16T16:45:06;87.80;;;42.07;;
6463;SDS011;3265;42.694;23.282;2024-01-16T16:47:38;78.83;;;40.53;;
6463;SDS011;3265;42.694;23.282;2024-01-16T16:50:08;75.57;;;38.77;;
6463;SDS011;3265;42.694;23.282;2024-01-16T16:52:47;40.27;;;22.53;;
6463;SDS011;3265;42.694;23.282;2024-01-16T16:57:44;36.30;;;20.17;;
6463;SDS011;3265;42.694;23.282;2024-01-16T17:00:14;41.90;;;24.63;;
6463;SDS011;3265;42.694;23.282;2024-01-16T17:02:41;37.90;;;21.07;;
6463;SDS011;3265;42.694;23.282;2024-01-16T17:05:18;43.37;;;23.10;;
6463;SDS011;3265;42.694;23.282;2024-01-16T17:07:56;57.90;;;30.30;;
6463;SDS011;3265;42.694;23.282;2024-01-16T17:10:23;57.53;;;30.23;;
6463;SDS011;3265;42.694;23.282;2024-01-16T17:13:04;62.70;;;33.67;;
6463;SDS011;3265;42.694;23.282;2024-01-16T17:15:33;55.37;;;31.17;;
6463;SDS011;3265;42.694;23.282;2024-01-16T17:18:02;45.83;;;25.43;;
6463;SDS011;3265;42.694;23.282;2024-01-16T17:20:49;53.53;;;29.53;;
6463;SDS011;3265;42.694;23.282;2024-01-16T17:23:20;54.03;;;29.30;;
6463;SDS011;3265;42.694;23.282;2024-01-16T17:25:57;55.53;;;29.30;;
6463;SDS011;3265;42.694;23.282;2024-01-16T17:28:28;56.47;;;29.63;;
6463;SDS011;3265;42.694;23.282;2024-01-16T17:30:57;56.07;;;30.13;;
6463;SDS011;3265;42.694;23.282;2024-01-16T17:33:28;51.00;;;27.87;;
6463;SDS011;3265;42.694;23.282;2024-01-16T17:35:55;54.17;;;30.30;;
6463;SDS011;3265;42.694;23.282;2024-01-16T17:38:31;63.10;;;34.63;;
6463;SDS011;3265;42.694;23.282;2024-01-16T17:41:11;70.87;;;36.03;;
6463;SDS011;3265;42.694;23.282;2024-01-16T17:43:39;69.07;;;35.73;;
6463;SDS011;3265;42.694;23.282;2024-01-16T17:46:09;63.93;;;33.90;;
6463;SDS011;3265;42.694;23.282;2024-01-16T17:48:38;64.23;;;33.77;;
6463;SDS011;3265;42.694;23.282;2024-01-16T17:51:07;63.27;;;34.43;;
6463;SDS011;3265;42.694;23.282;2024-01-16T17:53:34;61.77;;;33.93;;
6463;SDS011;3265;42.694;23.282;2024-01-16T17:56:01;64.93;;;34.00;;
6463;SDS011;3265;42.694;23.282;2024-01-16T17:58:28;66.97;;;33.90;;
6463;SDS011;3265;42.694;23.282;2024-01-16T18:00:55;56.20;;;31.50;;
6463;SDS011;3265;42.694;23.282;2024-01-16T18:03:26;73.47;;;38.60;;
6463;SDS011;3265;42.694;23.282;2024-01-16T18:05:53;96.40;;;47.67;;
6463;SDS011;3265;42.694;23.282;2024-01-16T18:08:20;113.40;;;56.87;;
6463;SDS011;3265;42.694;23.282;2024-01-16T18:10:47;134.27;;;65.07;;
6463;SDS011;3265;42.694;23.282;2024-01-16T18:13:18;121.50;;;60.03;;
6463;SDS011;3265;42.694;23.282;2024-01-16T18:15:47;124.90;;;63.70;;
6463;SDS011;3265;42.694;23.282;2024-01-16T18:18:14;132.30;;;63.30;;
6463;SDS011;3265;42.694;23.282;2024-01-16T18:20:48;139.07;;;70.17;;
6463;SDS011;3265;42.694;23.282;2024-01-16T18:23:18;125.87;;;61.97;;
6463;SDS011;3265;42.694;23.282;2024-01-16T18:25:46;123.30;;;58.40;;
6463;SDS011;3265;42.694;23.282;2024-01-16T18:28:19;138.03;;;65.37;;
6463;SDS011;3265;42.694;23.282;2024-01-16T18:30:47;130.33;;;64.23;;
6463;SDS011;3265;42.694;23.282;2024-01-16T18:33:16;137.80;;;65.47;;
6463;SDS011;3265;42.694;23.282;2024-01-16T18:35:45;126.70;;;61.47;;
6463;SDS011;3265;42.694;23.282;2024-01-16T18:38:12;129.77;;;60.97;;
6463;SDS011;3265;42.694;23.282;2024-01-16T18:40:39;125.30;;;60.67;;
6463;SDS011;3265;42.694;23.282;2024-01-16T18:43:06;132.87;;;62.40;;
6463;SDS011;3265;42.694;23.282;2024-01-16T18:45:34;128.50;;;62.73;;
6463;SDS011;3265;42.694;23.282;2024-01-16T18:48:01;118.10;;;58.63;;
6463;SDS011;3265;42.694;23.282;2024-01-16T18:50:29;91.30;;;45.23;;
6463;SDS011;3265;42.694;23.282;2024-01-16T18:52:59;109.73;;;53.87;;
6463;SDS011;3265;42.694;23.282;2024-01-16T18:55:29;112.23;;;56.67;;
6463;SDS011;3265;42.694;23.282;2024-01-16T18:57:56;131.87;;;59.37;;
6463;SDS011;3265;42.694;23.282;2024-01-16T19:00:26;157.97;;;74.30;;
6463;SDS011;3265;42.694;23.282;2024-01-16T19:02:53;233.63;;;111.30;;
6463;SDS011;3265;42.694;23.282;2024-01-16T19:05:22;219.47;;;105.13;;
6463;SDS011;3265;42.694;23.282;2024-01-16T19:07:49;307.57;;;143.00;;
6463;SDS011;3265;42.694;23.282;2024-01-16T19:10:18;175.53;;;83.43;;
6463;SDS011;3265;42.694;23.282;2024-01-16T19:12:46;109.27;;;51.57;;
6463;SDS011;3265;42.694;23.282;2024-01-16T19:15:13;97.10;;;48.47;;
6463;SDS011;3265;42.694;23.282;2024-01-16T19:17:43;98.00;;;49.40;;
6463;SDS011;3265;42.694;23.282;2024-01-16T19:20:11;143.77;;;66.97;;
6463;SDS011;3265;42.694;23.282;2024-01-16T19:22:39;229.47;;;108.13;;
6463;SDS011;3265;42.694;23.282;2024-01-16T19:25:06;283.07;;;127.30;;
6463;SDS011;3265;42.694;23.282;2024-01-16T19:30:49;307.70;;;145.57;;
6463;SDS011;3265;42.694;23.282;2024-01-16T19:33:17;321.67;;;149.47;;
6463;SDS011;3265;42.694;23.282;2024-01-16T19:35:44;293.27;;;134.00;;
6463;SDS011;3265;42.694;23.282;2024-01-16T19:38:12;274.50;;;123.97;;
6463;SDS011;3265;42.694;23.282;2024-01-16T19:40:39;240.03;;;113.37;;
6463;SDS011;3265;42.694;23.282;2024-01-16T19:43:06;197.50;;;93.97;;
6463;SDS011;3265;42.694;23.282;2024-01-16T19:45:33;171.13;;;80.40;;
6463;SDS011;3265;42.694;23.282;2024-01-16T19:48:03;156.10;;;73.87;;
6463;SDS011;3265;42.694;23.282;2024-01-16T19:50:30;156.13;;;74.57;;
6463;SDS011;3265;42.694;23.282;2024-01-16T19:53:01;162.03;;;75.87;;
6463;SDS011;3265;42.694;23.282;2024-01-16T19:55:32;165.40;;;79.93;;
6463;SDS011;3265;42.694;23.282;2024-01-16T19:57:59;166.97;;;78.37;;
6463;SDS011;3265;42.694;23.282;2024-01-16T20:00:28;164.60;;;77.90;;
6463;SDS011;3265;42.694;23.282;2024-01-16T20:02:57;161.20;;;76.47;;
6463;SDS011;3265;42.694;23.282;2024-01-16T20:05:33;174.87;;;82.83;;
6463;SDS011;3265;42.694;23.282;2024-01-16T20:08:03;207.87;;;101.67;;
6463;SDS011;3265;42.694;23.282;2024-01-16T20:10:32;213.97;;;101.13;;
6463;SDS011;3265;42.694;23.282;2024-01-16T20:12:59;210.00;;;98.43;;
6463;SDS011;3265;42.694;23.282;2024-01-16T20:15:28;225.93;;;109.63;;
6463;SDS011;3265;42.694;23.282;2024-01-16T20:18:04;216.20;;;103.00;;
6463;SDS011;3265;42.694;23.282;2024-01-16T20:20:35;212.07;;;95.93;;
6463;SDS011;3265;42.694;23.282;2024-01-16T20:23:07;263.87;;;124.03;;
6463;SDS011;3265;42.694;23.282;2024-01-16T20:26:03;403.07;;;200.67;;
6463;SDS011;3265;42.694;23.282;2024-01-16T20:28:31;365.50;;;170.43;;
6463;SDS011;3265;42.694;23.282;2024-01-16T20:31:01;337.93;;;152.20;;
6463;SDS011;3265;42.694;23.282;2024-01-16T20:33:28;368.90;;;173.73;;
6463;SDS011;3265;42.694;23.282;2024-01-16T20:36:00;379.10;;;174.17;;
6463;SDS011;3265;42.694;23.282;2024-01-16T20:38:40;322.13;;;149.87;;
6463;SDS011;3265;42.694;23.282;2024-01-16T20:41:09;314.50;;;147.53;;
6463;SDS011;3265;42.694;23.282;2024-01-16T20:43:38;286.13;;;138.43;;
6463;SDS011;3265;42.694;23.282;2024-01-16T20:46:06;273.90;;;129.80;;
6463;SDS011;3265;42.694;23.282;2024-01-16T20:48:33;309.00;;;150.67;;
6463;SDS011;3265;42.694;23.282;2024-01-16T20:51:05;314.07;;;149.77;;
6463;SDS011;3265;42.694;23.282;2024-01-16T20:53:37;321.40;;;154.43;;
6463;SDS011;3265;42.694;23.282;2024-01-16T20:56:05;360.07;;;173.33;;
6463;SDS011;3265;42.694;23.282;2024-01-16T20:58:43;376.73;;;180.93;;
6463;SDS011;3265;42.694;23.282;2024-01-16T21:01:11;389.23;;;187.07;;
6463;SDS011;3265;42.694;23.282;2024-01-16T21:03:40;371.70;;;179.03;;
6463;SDS011;3265;42.694;23.282;2024-01-16T21:06:20;389.70;;;187.70;;
6463;SDS011;3265;42.694;23.282;2024-01-16T21:09:02;385.67;;;185.00;;
6463;SDS011;3265;42.694;23.282;2024-01-16T21:11:46;396.40;;;181.80;;
6463;SDS011;3265;42.694;23.282;2024-01-16T21:14:27;385.03;;;179.43;;
6463;SDS011;3265;42.694;23.282;2024-01-16T21:16:56;367.93;;;172.33;;
6463;SDS011;3265;42.694;23.282;2024-01-16T21:19:32;369.03;;;175.37;;
6463;SDS011;3265;42.694;23.282;2024-01-16T21:22:03;357.17;;;173.73;;
6463;SDS011;3265;42.694;23.282;2024-01-16T21:24:31;356.97;;;169.97;;
6463;SDS011;3265;42.694;23.282;2024-01-16T21:27:09;352.97;;;167.43;;
6463;SDS011;3265;42.694;23.282;2024-01-16T21:30:30;362.80;;;170.47;;
6463;SDS011;3265;42.694;23.282;2024-01-16T21:33:01;376.43;;;178.50;;
6463;SDS011;3265;42.694;23.282;2024-01-16T21:35:31;389.47;;;186.43;;
6463;SDS011;3265;42.694;23.282;2024-01-16T21:38:16;366.83;;;164.00;;
6463;SDS011;3265;42.694;23.282;2024-01-16T22:10:57;320.87;;;154.23;;
6463;SDS011;3265;42.694;23.282;2024-01-16T22:14:10;344.83;;;164.53;;
6463;SDS011;3265;42.694;23.282;2024-01-16T22:39:27;248.20;;;113.93;;
6463;SDS011;3265;42.694;23.282;2024-01-16T22:45:22;244.33;;;113.10;;
6463;SDS011;3265;42.694;23.282;2024-01-16T23:33:14;225.73;;;101.93;;
6463;SDS011;3265;42.694;23.282;2024-01-16T23:36:25;217.10;;;100.50;;
